createdAt,value
2022-11-14T00:01:02.259Z,8.27
2022-11-14T00:05:07.977Z,8.70
2022-11-14T00:10:08.537Z,9.00
2022-11-14T00:15:08.248Z,7.40
2022-11-14T00:20:07.943Z,9.05
2022-11-14T00:25:08.704Z,8.05
2022-11-14T00:30:08.420Z,9.40
2022-11-14T00:35:08.134Z,9.35
2022-11-14T00:40:07.868Z,10.35
2022-11-14T00:45:08.582Z,10.23
2022-11-14T00:50:08.293Z,9.43
2022-11-14T00:55:07.993Z,10.63
2022-11-14T01:00:07.637Z,10.23
2022-11-14T01:05:08.606Z,10.02
2022-11-14T01:10:08.289Z,11.10
2022-11-14T01:15:08.031Z,11.30
2022-11-14T01:20:07.746Z,11.30
2022-11-14T01:25:08.449Z,10.90
2022-11-14T01:30:08.187Z,11.07
2022-11-14T01:35:07.859Z,10.10
2022-11-14T01:40:08.549Z,9.90
2022-11-14T01:45:08.278Z,11.32
2022-11-14T01:50:08.016Z,9.65
2022-11-14T01:55:07.711Z,10.88
2022-11-14T02:00:08.402Z,10.88
2022-11-14T02:05:08.114Z,11.75
2022-11-14T02:10:07.800Z,12.40
2022-11-14T02:15:08.462Z,11.40
2022-11-14T02:20:08.252Z,11.45
2022-11-14T02:25:07.945Z,10.70
2022-11-14T02:30:07.658Z,11.60
2022-11-14T02:35:08.352Z,12.35
2022-11-14T02:40:08.057Z,13.63
2022-11-14T02:45:07.748Z,11.93
2022-11-14T02:50:08.430Z,11.98
2022-11-14T02:55:08.135Z,12.85
2022-11-14T03:00:13.531Z,13.25
2022-11-14T03:05:07.716Z,12.05
2022-11-14T03:10:08.441Z,12.25
2022-11-14T03:15:08.164Z,12.68
2022-11-14T03:20:07.871Z,12.90
2022-11-14T03:25:08.567Z,10.85
2022-11-14T03:30:08.270Z,12.10
2022-11-14T03:35:07.955Z,12.93
2022-11-14T03:40:07.662Z,13.70
2022-11-14T03:45:08.370Z,12.65
2022-11-14T03:50:08.085Z,11.90
2022-11-14T03:55:07.771Z,13.23
2022-11-14T04:00:08.463Z,13.40
2022-11-14T04:05:08.149Z,12.25
2022-11-14T04:10:07.901Z,13.20
2022-11-14T04:15:08.612Z,13.23
2022-11-14T04:20:08.346Z,12.70
2022-11-14T04:25:08.028Z,11.80
2022-11-14T04:30:07.745Z,11.95
2022-11-14T04:35:08.439Z,13.55
2022-11-14T04:40:08.146Z,13.18
2022-11-14T04:45:07.901Z,12.93
2022-11-14T04:50:08.640Z,12.93
2022-11-14T04:55:08.339Z,12.38
2022-11-14T05:00:08.059Z,11.82
2022-11-14T05:05:01.790Z,11.30
2022-11-14T05:10:02.544Z,12.52
2022-11-14T05:15:02.357Z,12.07
2022-11-14T05:20:02.241Z,11.60
2022-11-14T05:25:02.016Z,12.50
2022-11-14T05:30:01.863Z,11.95
2022-11-14T05:35:02.725Z,11.88
2022-11-14T05:40:02.563Z,11.93
2022-11-14T05:45:02.371Z,11.38
2022-11-14T05:50:02.221Z,12.88
2022-11-14T05:55:01.991Z,12.02
2022-11-14T06:00:01.786Z,11.95
2022-11-14T06:05:02.652Z,12.32
2022-11-14T06:10:02.418Z,12.85
2022-11-14T06:15:02.193Z,12.88
2022-11-14T06:20:02.093Z,12.38
2022-11-14T06:25:02.000Z,14.05
2022-11-14T06:30:01.888Z,11.68
2022-11-14T06:35:02.801Z,12.32
2022-11-14T06:40:02.864Z,12.25
2022-11-14T06:45:02.922Z,13.80
2022-11-14T06:50:02.908Z,13.38
2022-11-14T06:55:02.851Z,12.30
2022-11-14T07:00:02.756Z,12.40
2022-11-14T07:05:02.704Z,13.88
2022-11-14T07:10:02.836Z,14.80
2022-11-14T07:15:02.679Z,13.05
2022-11-14T07:20:02.486Z,13.43
2022-11-14T07:25:02.217Z,13.18
2022-11-14T07:30:02.035Z,12.85
2022-11-14T07:35:02.750Z,13.98
2022-11-14T07:40:01.807Z,11.40
2022-11-14T07:45:02.650Z,12.20
2022-11-14T07:50:02.483Z,12.65
2022-11-14T07:55:02.294Z,11.63
2022-11-14T08:00:02.179Z,12.07
2022-11-14T08:05:01.928Z,13.63
2022-11-14T08:10:02.724Z,12.15
2022-11-14T08:15:02.535Z,13.50
2022-11-14T08:20:02.382Z,12.43
2022-11-14T08:25:02.190Z,15.43
2022-11-14T08:30:02.133Z,15.43
2022-11-14T08:35:01.979Z,14.60
2022-11-14T08:40:01.893Z,14.68
2022-11-14T08:45:02.624Z,15.15
2022-11-14T08:50:02.576Z,14.38
2022-11-14T08:55:02.394Z,14.25
2022-11-14T09:00:02.229Z,15.63
2022-11-14T09:05:02.051Z,13.73
2022-11-14T09:10:01.896Z,15.05
2022-11-14T09:15:02.733Z,14.02
2022-11-14T09:20:02.707Z,14.70
2022-11-14T09:25:02.610Z,13.55
2022-11-14T09:30:02.532Z,12.55
2022-11-14T09:35:02.458Z,9.65
2022-11-14T09:40:02.398Z,9.90
2022-11-14T09:45:02.248Z,10.13
2022-11-14T09:50:02.252Z,9.15
2022-11-14T09:55:02.073Z,11.48
2022-11-14T10:00:01.914Z,12.43
2022-11-14T10:05:09.356Z,12.43
2022-11-14T10:10:02.181Z,11.15
2022-11-14T10:15:01.994Z,11.32
2022-11-14T10:20:01.825Z,9.13
2022-11-14T10:25:02.602Z,10.35
2022-11-14T10:30:12.475Z,0
2022-11-14T10:35:02.253Z,10.10
2022-11-14T10:40:02.071Z,10.85
2022-11-14T10:45:01.889Z,12.65
2022-11-14T10:50:02.762Z,12.32
2022-11-14T10:55:02.670Z,12.20
2022-11-14T11:00:02.530Z,9.07
2022-11-14T11:05:02.357Z,12.93
2022-11-14T11:10:02.137Z,13.45
2022-11-14T11:15:06.893Z,11.00
2022-11-14T11:20:12.722Z,0
2022-11-14T11:25:02.604Z,12.70
2022-11-14T11:30:02.469Z,11.85
2022-11-14T11:35:02.412Z,13.05
2022-11-14T11:40:02.235Z,13.15
2022-11-14T11:45:01.961Z,12.10
2022-11-14T11:50:01.823Z,13.10
2022-11-14T11:55:02.639Z,11.00
2022-11-14T12:00:02.606Z,15.05
2022-11-14T12:05:02.566Z,10.93
2022-11-14T12:10:10.291Z,12.57
2022-11-14T12:15:02.029Z,11.50
2022-11-14T12:20:01.972Z,9.98
2022-11-14T12:25:01.947Z,8.45
2022-11-14T12:30:01.892Z,8.40
2022-11-14T12:35:02.917Z,7.03
2022-11-14T12:40:01.832Z,6.43
2022-11-14T12:45:02.682Z,6.05
2022-11-14T12:50:02.480Z,5.30
2022-11-14T12:55:02.214Z,5.53
2022-11-14T13:00:01.978Z,5.40
2022-11-14T13:05:01.795Z,5.28
2022-11-14T13:10:02.662Z,4.80
2022-11-14T13:15:02.482Z,5.32
2022-11-14T13:20:02.298Z,9.18
2022-11-14T13:25:02.125Z,7.63
2022-11-14T13:30:01.861Z,6.03
2022-11-14T13:35:12.739Z,0
2022-11-14T13:40:02.520Z,5.30
2022-11-14T13:45:02.258Z,4.97
2022-11-14T13:50:02.221Z,5.15
2022-11-14T13:55:02.051Z,5.95
2022-11-14T14:00:01.838Z,6.40
2022-11-14T14:05:02.591Z,6.43
2022-11-14T14:10:02.429Z,6.63
2022-11-14T14:15:02.288Z,7.07
2022-11-14T14:20:02.057Z,6.18
2022-11-14T14:25:01.825Z,7.47
2022-11-14T14:30:12.632Z,0
2022-11-14T14:35:02.379Z,8.38
2022-11-14T14:40:02.537Z,6.90
2022-11-14T14:45:02.444Z,7.88
2022-11-14T14:50:02.400Z,8.45
2022-11-14T14:55:02.323Z,7.50
2022-11-14T15:00:02.426Z,7.32
2022-11-14T15:05:02.390Z,7.65
2022-11-14T15:10:02.220Z,6.65
2022-11-14T15:15:02.129Z,8.15
2022-11-14T15:20:01.941Z,7.03
2022-11-14T15:25:01.790Z,8.02
2022-11-14T15:30:02.642Z,7.05
2022-11-14T15:35:02.515Z,6.95
2022-11-14T15:40:02.290Z,7.60
2022-11-14T15:45:02.101Z,7.25
2022-11-14T15:50:01.938Z,7.82
2022-11-14T15:55:01.790Z,6.60
2022-11-14T16:00:02.649Z,6.93
2022-11-14T16:05:02.443Z,7.22
2022-11-14T16:10:02.386Z,6.28
2022-11-14T16:15:02.196Z,7.68
2022-11-14T16:20:02.017Z,7.63
2022-11-14T16:25:01.879Z,6.40
2022-11-14T16:30:02.765Z,6.25
2022-11-14T16:35:02.560Z,7.97
2022-11-14T16:40:02.375Z,7.53
2022-11-14T16:45:02.171Z,6.90
2022-11-14T16:50:02.086Z,7.43
2022-11-14T16:55:01.876Z,6.53
2022-11-14T17:00:02.637Z,7.40
2022-11-14T17:05:02.446Z,7.78
2022-11-14T17:10:02.498Z,6.60
2022-11-14T17:15:02.330Z,7.18
2022-11-14T17:20:02.113Z,7.10
2022-11-14T17:25:01.985Z,7.05
2022-11-14T17:30:01.896Z,7.65
2022-11-14T17:35:02.744Z,7.15
2022-11-14T17:40:02.777Z,7.63
2022-11-14T17:45:02.759Z,8.20
2022-11-14T17:50:02.662Z,8.38
2022-11-14T17:55:02.701Z,7.93
2022-11-14T18:00:02.517Z,7.57
2022-11-14T18:05:02.337Z,8.18
2022-11-14T18:10:02.187Z,8.13
2022-11-14T18:15:01.968Z,8.52
2022-11-14T18:20:01.833Z,8.27
2022-11-14T18:25:07.698Z,9.00
2022-11-14T18:30:19.799Z,8.98
2022-11-14T18:35:01.904Z,8.02
2022-11-14T18:40:02.766Z,8.27
2022-11-14T18:45:02.579Z,7.75
2022-11-14T18:50:02.314Z,7.68
2022-11-14T18:55:02.173Z,7.95
2022-11-14T19:00:02.007Z,8.73
2022-11-14T19:05:01.830Z,9.50
2022-11-14T19:10:02.667Z,9.30
2022-11-14T19:15:02.499Z,10.00
2022-11-14T19:20:02.324Z,9.98
2022-11-14T19:25:02.151Z,8.60
2022-11-14T19:30:01.946Z,8.90
2022-11-14T19:35:02.744Z,9.25
2022-11-14T19:40:02.704Z,10.85
2022-11-14T19:45:02.536Z,10.32
2022-11-14T19:50:02.295Z,9.38
2022-11-14T19:55:02.228Z,8.77
2022-11-14T20:00:02.111Z,8.48
2022-11-14T20:05:01.996Z,8.98
2022-11-14T20:10:02.045Z,8.82
2022-11-14T20:15:01.943Z,7.80
2022-11-14T20:20:01.898Z,8.35
2022-11-14T20:25:02.750Z,8.27
2022-11-14T20:30:02.717Z,8.05
2022-11-14T20:35:02.490Z,8.70
2022-11-14T20:40:02.437Z,9.75
2022-11-14T20:45:02.240Z,9.05
2022-11-14T20:50:02.110Z,7.60
2022-11-14T20:55:01.904Z,7.88
2022-11-14T21:00:03.562Z,7.38
2022-11-14T21:05:02.305Z,7.75
2022-11-14T21:10:02.111Z,7.72
2022-11-14T21:15:01.847Z,8.48
2022-11-14T21:20:02.809Z,7.95
2022-11-14T21:25:02.618Z,7.20
2022-11-14T21:30:02.500Z,7.75
2022-11-14T21:35:06.939Z,7.85
2022-11-14T21:40:02.224Z,7.05
2022-11-14T21:45:02.031Z,8.07
2022-11-14T21:50:01.873Z,6.75
2022-11-14T21:55:02.746Z,8.50
2022-11-14T22:00:02.535Z,7.97
2022-11-14T22:05:08.249Z,7.50
2022-11-14T22:10:07.958Z,6.97
2022-11-14T22:15:07.701Z,8.13
2022-11-14T22:20:08.428Z,7.47
2022-11-14T22:25:08.138Z,7.47
2022-11-14T22:30:07.908Z,6.80
2022-11-14T22:35:08.599Z,8.07
2022-11-14T22:40:08.381Z,7.22
2022-11-14T22:45:08.103Z,7.63
2022-11-14T22:50:07.799Z,7.18
2022-11-14T22:55:12.419Z,8.25
2022-11-14T23:00:08.020Z,7.28
2022-11-14T23:05:07.707Z,7.47
2022-11-14T23:10:08.407Z,7.72
2022-11-14T23:15:08.124Z,7.93
2022-11-14T23:20:12.246Z,7.60
2022-11-14T23:25:07.846Z,8.32
2022-11-14T23:30:08.579Z,7.60
2022-11-14T23:35:08.299Z,8.00
2022-11-14T23:40:08.038Z,7.55
2022-11-14T23:45:07.748Z,7.75
2022-11-14T23:50:08.452Z,7.53
2022-11-14T23:55:08.172Z,7.88
